map of DCF home
DCF - Airport
Location
City:  Roseau, Dominica
Name:Canefield
ICAO:TDCF
IATA:DCF

Details
Type:Airport (Aerodrome, Airfield)
Latitude:1520'12"N (15.336719)
Longitude:6123'32"W (-61.392210)
Datum:WGS 1984
Elevation:13 ft (4 m)
Variation:14.94W (WMM2015 magnetic declination)
-0.03 annual change
Runways:1
Longest:3130 × 75 ft (954 × 23 m), paved

Time
Time Zone:UTC-4
Local Time:

Weather
METAR:TDCF 161800Z 10007KT 9999 SCT017 30/22 Q1012 RERA

Related Locations
Nearby:
Farthest:BEE: 12154 mi / 19559 km
Beagle Bay, WA, AU

Find:

   beyond  
but within

Other Information
Maps:
NOTAMs:
Links:
Sources:

  
  • flag of Dominica
  

Sectional Chart

Flight Planning
at skyvector.com

Satellite Image

Google Maps Satellite view

 

Copyright © 2004-2018 Karl L. Swartz. All rights reserved.
The Great Circle Mapper name and logo are trademarks of the Great Circle Mapper.
All other trademarks mentioned herein belong to their respective owners.
Please see credits for attibutions and further copyright information.

  Follow gcmap on Facebook Follow gcmap on Twitter Follow gcmap on Google+ GCmap on LinkedIn

hCard Microformat

Geo Microformat